Weather observations for the past three days for
Tri-Cities Airport
Metric (Imperial)
Date Time (pdt) Wind (kph) Vis. (km) Weather Sky Cond. Temperature (ºC) Relative Humidity Wind Chill (°C) Heat Index (°C) Pressure Precipitation (cm)
Air Dwpt 6 hour altimeter (cm) sea level (mb) 1 hr 3 hr 6 hr
Max. Min.
10 11:53 NW 6 16.09 Fair CLR 21.1 8.3 44% 76.07 1014.2
10 10:53 NE 6 16.09 Fair CLR 19.4 7.8 19.4 6.1 47% 76.07 1013.9
10 09:53 N 6 16.09 Fair CLR 17.2 8.3 56% 76.12 1014.7
10 08:53 N 6 16.09 Fair CLR 15 8.3 64% 76.15 1015.1
10 07:53 Calm 16.09 Fair CLR 11.7 7.2 74% 76.15 1015.1
10 06:53 Calm 16.09 Fair CLR 8.9 7.2 89% 76.12 1014.9
10 05:53 N 7 16.09 Fair CLR 6.7 5.6 93% 6 76.07 1014.2
10 04:53 Calm 16.09 Fair CLR 7.8 6.7 13.3 7.2 93% 76.1 1014.5
10 03:53 Calm 16.09 Fair CLR 8.3 6.7 90% 76.1 1014.5
10 02:53 Calm 16.09 Fair CLR 10 7.2 83% 76.1 1014.5
10 01:53 N 11 16.09 Fair CLR 9.4 7.2 86% 8 76.12 1014.8
10 00:53 Calm 16.09 Fair CLR 10.6 7.2 80% 76.15 1015.1
09 23:53 NW 6 16.09 Fair CLR 10.6 7.2 80% 76.15 1015.2
09 22:53 W 6 16.09 Fair CLR 13.3 10 25.6 13.3 81% 76.17 1015.3
09 21:53 N 11 16.09 Fair CLR 15 9.4 69% 76.17 1015.3
09 20:53 NE 6 16.09 Fair CLR 18.3 5 42% 76.17 1015.2
09 19:53 E 7 16.09 Fair CLR 22.8 2.8 27% 76.15 1015.1
09 18:53 E 7 16.09 Fair CLR 25 3.9 26% 25 76.17 1015.5
09 17:53 NE 11 16.09 Fair CLR 25 3.3 24% 25 76.23 1016.1
09 16:53 NE 9 16.09 Fair CLR 25.6 3.3 25.6 20.6 24% 25 76.25 1016.5
09 15:53 N 7 16.09 Fair CLR 25 6.1 30% 25 76.3 1017.1
09 14:53 NE 11 16.09 Fair CLR 25 6.1 30% 25 76.35 1017.9
09 13:53 Vrbl 6 16.09 Fair CLR 23.9 5 29% 25 76.4 1018.5
09 12:53 E 6 16.09 Fair CLR 22.8 5 32% 76.45 1019.1
09 11:53 W 7 16.09 Fair CLR 22.2 5.6 34% 76.5 1019.8
09 10:53 W 7 16.09 Fair CLR 20.6 6.1 21.1 5.6 39% 76.56 1020.4
09 09:53 Vrbl 6 16.09 Fair CLR 18.3 5.6 43% 76.58 1020.7
09 08:53 Calm 16.09 Fair CLR 17.2 6.7 50% 76.61 1021.0
09 07:53 SE 6 16.09 Fair CLR 14.4 7.2 62% 76.58 1020.8
09 06:53 E 7 16.09 Fair CLR 11.1 7.2 77% 76.56 1020.6
09 05:53 NW 6 16.09 Fair CLR 6.1 5 93% 76.53 1020.2
09 04:53 NW 6 16.09 Fair CLR 6.7 4.4 17.8 6.7 85% 76.5 1020.0
09 03:53 Calm 16.09 Fair CLR 10 6.1 77% 76.5 1019.8
09 02:53 E 6 16.09 Fair CLR 6.7 5 89% 76.48 1019.5
09 01:53 NE 7 16.09 Fair CLR 10.6 6.7 77% 76.45 1019.1
09 00:53 E 7 16.09 Fair CLR 12.8 5 59% 76.43 1018.6
08 23:53 Calm 16.09 Fair CLR 15.6 3.9 46% 76.38 1018.0
08 22:53 Vrbl 7 16.09 Fair CLR 14.4 1.7 27.8 14.4 42% 76.33 1017.4
08 21:53 NW 19 G 30 16.09 Fair CLR 18.9 -1.1 26% 76.28 1016.8
08 20:53 W 19 16.09 Fair CLR 19.4 -1.1 25% 76.2 1015.6
08 19:53 NW 24 16.09 Fair CLR 21.1 -2.8 20% 76.1 1014.4
08 18:53 NW 22 16.09 Fair CLR 24.4 -1.1 18% 25 76.05 1013.8
08 17:53 NW 22 16.09 Fair CLR 27.2 -3.9 13% 26 76.02 1013.2
08 16:53 W 17 G 39 16.09 Fair CLR 27.8 -0.6 27.8 21.1 16% 27 76 1013.1
08 15:53 SW 31 G 39 16.09 Fair CLR 27.2 -0.6 16% 26 76.02 1013.4
08 14:53 SW 15 G 35 16.09 Fair CLR 26.1 -0.6 17% 25 76.05 1013.5
08 13:53 SW 17 16.09 Fair CLR 25.6 1.1 20% 25 76.07 1013.8
08 12:53 SW 24 G 37 16.09 Fair CLR 24.4 0.6 21% 25 76.07 1014.0
08 11:53 W 13 G 37 16.09 Fair CLR 23.9 1.1 22% 25 76.1 1014.3
08 10:53 SW 22 16.09 Fair CLR 21.1 4.4 21.1 12.8 34% 76.15 1014.8
08 09:53 SW 19 16.09 Fair CLR 20.6 3.9 33% 76.12 1014.6
08 08:53 Vrbl 6 16.09 Fair CLR 17.8 4.4 41% 76.1 1014.3
08 07:53 Vrbl 11 16.09 Fair CLR 16.1 4.4 46% 76.1 1014.2
08 06:53 SW 9 16.09 Fair CLR 15.6 3.3 44% 76.05 1013.6
08 05:53 SW 6 16.09 Fair CLR 13.3 2.2 47% 76.02 1013.3
08 04:53 Calm 16.09 Fair CLR 13.3 1.7 20.6 12.2 46% 76.02 1013.2
08 03:53 SW 7 16.09 Fair CLR 13.9 0.6 41% 75.97 1012.7
08 02:53 S 15 16.09 Fair CLR 15.6 -0.6 33% 75.97 1012.5
08 01:53 S 19 16.09 Fair CLR 16.1 -3.9 25% 75.95 1012.4
08 00:53 SW 19 16.09 Fair CLR 17.8 -5 21% 75.95 1012.2
07 23:53 SW 11 16.09 Fair CLR 17.2 -0.6 30% 75.92 1012.1
07 22:53 S 13 16.09 Fair CLR 20.6 -0.6 26.7 18.3 24% 75.9 1011.7
07 21:53 SE 9 16.09 Fair CLR 20 4.4 36% 75.9 1011.6
07 20:53 SE 11 16.09 Fair CLR 21.7 1.7 27% 75.87 1011.4
07 19:53 SE 11 16.09 Fair CLR 23.9 -1.1 19% 24 75.87 1011.2
07 18:53 SE 15 16.09 Fair CLR 25.6 -1.1 17% 25 75.87 1011.4
07 17:53 S 11 16.09 Fair CLR 26.1 1.1 20% 26 75.9 1011.6
07 16:53 Calm 16.09 Fair CLR 26.1 1.1 26.7 21.7 20% 26 75.9 1011.7
07 15:53 Vrbl 9 16.09 Fair CLR 26.7 1.7 20% 26 75.97 1012.5
07 14:53 SE 11 16.09 Fair CLR 25.6 1.1 20% 25 76.02 1013.3
07 13:53 SW 15 16.09 Fair CLR 25.6 2.8 23% 25 76.07 1014.0
07 12:53 SW 15 G 28 16.09 Fair CLR 24.4 3.3 25% 25 76.12 1014.5
Date Time (pdt) Wind (kph) Vis. (km) Weather Sky Cond. Air Dwpt Max. Min. Relative Humidity Wind Chill (°C) Heat Index (°C) altimeter (cm) sea level (mb) 1 hr 3 hr 6 hr
6 hour
Temperature (ºC) Pressure Precipitation (cm)